sensor_id;sensor_type;location;lat;lon;timestamp;temperature;humidity
61398;DHT22;47267;48.130;-2.040;2022-07-23T12:37:36;28.60;39.40
61398;DHT22;47267;48.130;-2.040;2022-07-23T12:40:25;23.00;51.60
61398;DHT22;47267;48.130;-2.040;2022-07-23T12:45:46;23.00;51.20
61398;DHT22;47267;48.130;-2.040;2022-07-23T12:48:29;23.00;51.10
61398;DHT22;47267;48.130;-2.040;2022-07-23T12:50:57;23.00;51.10
61398;DHT22;47267;48.130;-2.040;2022-07-23T13:01:34;23.10;50.90
61398;DHT22;47267;48.130;-2.040;2022-07-23T13:04:08;23.10;50.90
61398;DHT22;47267;48.130;-2.040;2022-07-23T13:06:37;23.10;50.80
61398;DHT22;47267;48.130;-2.040;2022-07-23T13:09:05;23.10;50.60
61398;DHT22;47267;48.130;-2.040;2022-07-23T13:11:32;23.10;50.80
61398;DHT22;47267;48.130;-2.040;2022-07-23T13:13:59;23.10;50.70
61398;DHT22;47267;48.130;-2.040;2022-07-23T13:16:29;23.10;50.60
61398;DHT22;47267;48.130;-2.040;2022-07-23T13:18:55;23.10;50.70
61398;DHT22;47267;48.130;-2.040;2022-07-23T13:21:22;23.10;50.60
61398;DHT22;47267;48.130;-2.040;2022-07-23T13:23:48;23.20;50.50
61398;DHT22;47267;48.130;-2.040;2022-07-23T13:26:14;23.20;50.40
61398;DHT22;47267;48.130;-2.040;2022-07-23T13:28:40;23.20;50.50
61398;DHT22;47267;48.130;-2.040;2022-07-23T13:31:06;23.20;50.50
61398;DHT22;47267;48.130;-2.040;2022-07-23T13:33:34;23.20;50.50
61398;DHT22;47267;48.130;-2.040;2022-07-23T13:36:00;23.20;50.40
61398;DHT22;47267;48.130;-2.040;2022-07-23T13:38:26;23.20;50.40
61398;DHT22;47267;48.130;-2.040;2022-07-23T13:40:53;23.20;50.20
61398;DHT22;47267;48.130;-2.040;2022-07-23T13:43:21;23.30;50.30
61398;DHT22;47267;48.130;-2.040;2022-07-23T13:45:48;23.30;50.30
61398;DHT22;47267;48.130;-2.040;2022-07-23T13:48:14;23.30;50.30
61398;DHT22;47267;48.130;-2.040;2022-07-23T13:50:41;23.30;50.30
61398;DHT22;47267;48.130;-2.040;2022-07-23T13:53:10;23.30;49.90
61398;DHT22;47267;48.130;-2.040;2022-07-23T13:55:37;23.30;49.80
61398;DHT22;47267;48.130;-2.040;2022-07-23T13:58:05;23.40;50.20
61398;DHT22;47267;48.130;-2.040;2022-07-23T14:00:34;23.40;50.10
61398;DHT22;47267;48.130;-2.040;2022-07-23T14:03:00;23.40;50.10
61398;DHT22;47267;48.130;-2.040;2022-07-23T14:05:27;23.40;50.10
61398;DHT22;47267;48.130;-2.040;2022-07-23T14:07:53;23.40;50.10
61398;DHT22;47267;48.130;-2.040;2022-07-23T14:10:21;23.40;49.80
61398;DHT22;47267;48.130;-2.040;2022-07-23T14:12:48;23.40;49.40
61398;DHT22;47267;48.130;-2.040;2022-07-23T14:15:15;23.50;49.80
61398;DHT22;47267;48.130;-2.040;2022-07-23T14:17:43;23.50;49.60
61398;DHT22;47267;48.130;-2.040;2022-07-23T14:20:13;23.50;49.70
61398;DHT22;47267;48.130;-2.040;2022-07-23T14:22:39;23.60;49.70
61398;DHT22;47267;48.130;-2.040;2022-07-23T14:25:06;23.60;49.80
61398;DHT22;47267;48.130;-2.040;2022-07-23T14:27:33;23.60;49.70
61398;DHT22;47267;48.130;-2.040;2022-07-23T14:30:00;23.60;49.60
61398;DHT22;47267;48.130;-2.040;2022-07-23T14:32:26;23.70;49.70
61398;DHT22;47267;48.130;-2.040;2022-07-23T14:34:52;23.70;49.70
61398;DHT22;47267;48.130;-2.040;2022-07-23T14:37:18;23.70;49.70
61398;DHT22;47267;48.130;-2.040;2022-07-23T14:39:44;23.70;49.60
61398;DHT22;47267;48.130;-2.040;2022-07-23T14:42:11;23.70;49.60
61398;DHT22;47267;48.130;-2.040;2022-07-23T14:44:38;23.70;49.40
61398;DHT22;47267;48.130;-2.040;2022-07-23T14:47:05;23.80;49.50
61398;DHT22;47267;48.130;-2.040;2022-07-23T14:49:32;23.80;49.20
61398;DHT22;47267;48.130;-2.040;2022-07-23T14:51:58;23.90;49.50
61398;DHT22;47267;48.130;-2.040;2022-07-23T14:54:25;23.90;49.50
61398;DHT22;47267;48.130;-2.040;2022-07-23T14:56:53;23.90;49.50
61398;DHT22;47267;48.130;-2.040;2022-07-23T14:59:19;23.90;49.60
61398;DHT22;47267;48.130;-2.040;2022-07-23T15:01:45;24.00;49.50
61398;DHT22;47267;48.130;-2.040;2022-07-23T15:04:11;24.00;49.30
61398;DHT22;47267;48.130;-2.040;2022-07-23T15:06:36;24.00;49.40
61398;DHT22;47267;48.130;-2.040;2022-07-23T15:09:04;24.00;49.60
61398;DHT22;47267;48.130;-2.040;2022-07-23T15:11:31;24.10;49.50
61398;DHT22;47267;48.130;-2.040;2022-07-23T15:14:00;24.10;49.40
61398;DHT22;47267;48.130;-2.040;2022-07-23T15:16:26;24.10;49.30
61398;DHT22;47267;48.130;-2.040;2022-07-23T15:18:54;24.20;49.50
61398;DHT22;47267;48.130;-2.040;2022-07-23T15:21:20;24.20;49.50
61398;DHT22;47267;48.130;-2.040;2022-07-23T15:23:46;24.20;50.10
61398;DHT22;47267;48.130;-2.040;2022-07-23T15:26:12;24.30;49.40
61398;DHT22;47267;48.130;-2.040;2022-07-23T15:28:41;24.30;49.40
61398;DHT22;47267;48.130;-2.040;2022-07-23T15:31:11;24.40;49.50
61398;DHT22;47267;48.130;-2.040;2022-07-23T15:33:38;24.40;49.40
61398;DHT22;47267;48.130;-2.040;2022-07-23T15:36:05;24.40;49.30
61398;DHT22;47267;48.130;-2.040;2022-07-23T15:38:31;24.50;49.20
61398;DHT22;47267;48.130;-2.040;2022-07-23T15:40:57;24.50;49.30
61398;DHT22;47267;48.130;-2.040;2022-07-23T15:43:24;24.60;49.40
61398;DHT22;47267;48.130;-2.040;2022-07-23T15:45:51;24.60;49.40
61398;DHT22;47267;48.130;-2.040;2022-07-23T15:48:18;24.60;49.50
61398;DHT22;47267;48.130;-2.040;2022-07-23T15:50:45;24.60;49.50
61398;DHT22;47267;48.130;-2.040;2022-07-23T15:53:11;24.70;49.50
61398;DHT22;47267;48.130;-2.040;2022-07-23T15:55:38;24.70;49.40
61398;DHT22;47267;48.130;-2.040;2022-07-23T15:58:04;24.80;49.50
61398;DHT22;47267;48.130;-2.040;2022-07-23T16:00:30;24.80;49.40
61398;DHT22;47267;48.130;-2.040;2022-07-23T16:02:56;24.80;49.40
61398;DHT22;47267;48.130;-2.040;2022-07-23T16:05:22;24.80;49.40
61398;DHT22;47267;48.130;-2.040;2022-07-23T16:07:48;24.80;49.50
61398;DHT22;47267;48.130;-2.040;2022-07-23T16:10:14;24.90;49.50
61398;DHT22;47267;48.130;-2.040;2022-07-23T16:12:39;24.90;49.50
61398;DHT22;47267;48.130;-2.040;2022-07-23T16:15:06;24.90;49.50
61398;DHT22;47267;48.130;-2.040;2022-07-23T16:17:31;24.90;49.50
61398;DHT22;47267;48.130;-2.040;2022-07-23T16:19:57;25.00;49.60
61398;DHT22;47267;48.130;-2.040;2022-07-23T16:22:23;25.00;49.50
61398;DHT22;47267;48.130;-2.040;2022-07-23T16:24:49;25.00;49.50
61398;DHT22;47267;48.130;-2.040;2022-07-23T16:27:14;25.00;49.50
61398;DHT22;47267;48.130;-2.040;2022-07-23T16:29:41;25.00;50.20
61398;DHT22;47267;48.130;-2.040;2022-07-23T16:32:07;25.00;49.50
61398;DHT22;47267;48.130;-2.040;2022-07-23T16:34:32;25.10;49.60
61398;DHT22;47267;48.130;-2.040;2022-07-23T16:36:58;25.10;49.60
61398;DHT22;47267;48.130;-2.040;2022-07-23T16:39:24;25.10;49.60
61398;DHT22;47267;48.130;-2.040;2022-07-23T16:41:53;25.10;49.60
61398;DHT22;47267;48.130;-2.040;2022-07-23T16:44:19;25.10;49.60
61398;DHT22;47267;48.130;-2.040;2022-07-23T16:46:44;25.10;49.60
61398;DHT22;47267;48.130;-2.040;2022-07-23T16:49:10;25.20;49.60
61398;DHT22;47267;48.130;-2.040;2022-07-23T16:51:36;25.20;49.60
61398;DHT22;47267;48.130;-2.040;2022-07-23T16:54:05;25.20;49.60
61398;DHT22;47267;48.130;-2.040;2022-07-23T16:56:31;25.20;49.70
61398;DHT22;47267;48.130;-2.040;2022-07-23T16:58:57;25.20;49.60
61398;DHT22;47267;48.130;-2.040;2022-07-23T17:01:24;25.20;49.60
61398;DHT22;47267;48.130;-2.040;2022-07-23T17:03:49;25.20;49.60
61398;DHT22;47267;48.130;-2.040;2022-07-23T17:06:17;25.20;49.60
61398;DHT22;47267;48.130;-2.040;2022-07-23T17:08:42;25.20;49.60
61398;DHT22;47267;48.130;-2.040;2022-07-23T17:11:08;25.20;49.60
61398;DHT22;47267;48.130;-2.040;2022-07-23T17:13:34;25.30;49.60
61398;DHT22;47267;48.130;-2.040;2022-07-23T17:16:00;25.30;49.60
61398;DHT22;47267;48.130;-2.040;2022-07-23T17:18:26;25.30;49.60
61398;DHT22;47267;48.130;-2.040;2022-07-23T17:20:52;25.30;49.60
61398;DHT22;47267;48.130;-2.040;2022-07-23T17:23:18;25.30;49.60
61398;DHT22;47267;48.130;-2.040;2022-07-23T17:25:44;25.30;49.60
61398;DHT22;47267;48.130;-2.040;2022-07-23T17:28:09;25.30;49.60
61398;DHT22;47267;48.130;-2.040;2022-07-23T17:30:35;25.30;49.60
61398;DHT22;47267;48.130;-2.040;2022-07-23T17:33:01;25.30;49.60
61398;DHT22;47267;48.130;-2.040;2022-07-23T17:35:27;25.40;49.70
61398;DHT22;47267;48.130;-2.040;2022-07-23T17:37:53;25.40;49.60
61398;DHT22;47267;48.130;-2.040;2022-07-23T17:40:19;25.40;49.60
61398;DHT22;47267;48.130;-2.040;2022-07-23T17:42:44;25.40;49.60
61398;DHT22;47267;48.130;-2.040;2022-07-23T17:45:10;25.40;49.60
61398;DHT22;47267;48.130;-2.040;2022-07-23T17:47:41;25.40;49.60
61398;DHT22;47267;48.130;-2.040;2022-07-23T17:50:08;25.40;49.70
61398;DHT22;47267;48.130;-2.040;2022-07-23T17:52:46;25.40;49.60
61398;DHT22;47267;48.130;-2.040;2022-07-23T17:55:13;25.40;49.70
61398;DHT22;47267;48.130;-2.040;2022-07-23T17:57:39;25.40;49.60
61398;DHT22;47267;48.130;-2.040;2022-07-23T18:00:09;25.40;49.60
61398;DHT22;47267;48.130;-2.040;2022-07-23T18:02:35;25.40;49.60
61398;DHT22;47267;48.130;-2.040;2022-07-23T18:05:01;25.50;49.70
61398;DHT22;47267;48.130;-2.040;2022-07-23T18:07:28;25.50;49.70
61398;DHT22;47267;48.130;-2.040;2022-07-23T18:09:53;25.50;49.70
61398;DHT22;47267;48.130;-2.040;2022-07-23T18:12:19;25.50;50.30
61398;DHT22;47267;48.130;-2.040;2022-07-23T18:14:45;25.50;49.70
61398;DHT22;47267;48.130;-2.040;2022-07-23T18:17:11;25.50;49.70
61398;DHT22;47267;48.130;-2.040;2022-07-23T18:19:36;25.50;49.70
61398;DHT22;47267;48.130;-2.040;2022-07-23T18:22:02;25.50;49.70
61398;DHT22;47267;48.130;-2.040;2022-07-23T18:24:28;25.50;49.70
61398;DHT22;47267;48.130;-2.040;2022-07-23T18:26:54;25.60;49.80
61398;DHT22;47267;48.130;-2.040;2022-07-23T18:29:20;25.60;49.80
61398;DHT22;47267;48.130;-2.040;2022-07-23T18:31:47;25.60;49.80
61398;DHT22;47267;48.130;-2.040;2022-07-23T18:34:12;25.60;49.80
61398;DHT22;47267;48.130;-2.040;2022-07-23T18:36:38;25.60;49.80
61398;DHT22;47267;48.130;-2.040;2022-07-23T18:39:04;25.60;49.80
61398;DHT22;47267;48.130;-2.040;2022-07-23T18:41:31;25.60;49.80
61398;DHT22;47267;48.130;-2.040;2022-07-23T18:43:58;25.60;49.80
61398;DHT22;47267;48.130;-2.040;2022-07-23T18:46:23;25.60;49.80
61398;DHT22;47267;48.130;-2.040;2022-07-23T18:48:49;25.60;49.80
61398;DHT22;47267;48.130;-2.040;2022-07-23T18:51:15;25.70;49.90
61398;DHT22;47267;48.130;-2.040;2022-07-23T18:53:41;25.70;49.90
61398;DHT22;47267;48.130;-2.040;2022-07-23T18:56:07;25.70;49.90
61398;DHT22;47267;48.130;-2.040;2022-07-23T18:58:33;25.70;49.90
61398;DHT22;47267;48.130;-2.040;2022-07-23T19:00:58;25.70;49.80
61398;DHT22;47267;48.130;-2.040;2022-07-23T19:03:24;25.70;49.90
61398;DHT22;47267;48.130;-2.040;2022-07-23T19:05:50;25.70;49.90
61398;DHT22;47267;48.130;-2.040;2022-07-23T19:08:16;25.70;49.90
61398;DHT22;47267;48.130;-2.040;2022-07-23T19:10:42;25.70;49.90
61398;DHT22;47267;48.130;-2.040;2022-07-23T19:13:08;25.70;49.90
61398;DHT22;47267;48.130;-2.040;2022-07-23T19:15:34;25.70;49.90
61398;DHT22;47267;48.130;-2.040;2022-07-23T19:17:59;25.70;49.90
61398;DHT22;47267;48.130;-2.040;2022-07-23T19:20:25;25.70;49.90
61398;DHT22;47267;48.130;-2.040;2022-07-23T19:22:51;25.70;49.80
61398;DHT22;47267;48.130;-2.040;2022-07-23T19:25:17;25.70;49.90
61398;DHT22;47267;48.130;-2.040;2022-07-23T19:27:43;25.70;50.50
61398;DHT22;47267;48.130;-2.040;2022-07-23T19:30:09;25.70;49.90
61398;DHT22;47267;48.130;-2.040;2022-07-23T19:32:36;25.80;49.90
61398;DHT22;47267;48.130;-2.040;2022-07-23T19:35:03;25.80;49.90
61398;DHT22;47267;48.130;-2.040;2022-07-23T19:37:29;25.80;49.90
61398;DHT22;47267;48.130;-2.040;2022-07-23T19:39:55;25.80;49.90
61398;DHT22;47267;48.130;-2.040;2022-07-23T19:42:20;25.80;49.90
61398;DHT22;47267;48.130;-2.040;2022-07-23T19:44:46;25.80;49.90
61398;DHT22;47267;48.130;-2.040;2022-07-23T19:47:12;25.80;49.90
61398;DHT22;47267;48.130;-2.040;2022-07-23T19:49:37;25.80;49.90
61398;DHT22;47267;48.130;-2.040;2022-07-23T19:52:03;25.80;49.90
61398;DHT22;47267;48.130;-2.040;2022-07-23T19:54:30;25.80;49.90
61398;DHT22;47267;48.130;-2.040;2022-07-23T19:56:56;25.80;50.00
61398;DHT22;47267;48.130;-2.040;2022-07-23T19:59:22;25.80;49.90
61398;DHT22;47267;48.130;-2.040;2022-07-23T20:01:47;25.80;49.90
61398;DHT22;47267;48.130;-2.040;2022-07-23T20:04:13;25.90;50.00
61398;DHT22;47267;48.130;-2.040;2022-07-23T20:06:39;25.90;50.00
61398;DHT22;47267;48.130;-2.040;2022-07-23T20:09:05;25.90;50.00
61398;DHT22;47267;48.130;-2.040;2022-07-23T20:11:31;25.90;50.00
61398;DHT22;47267;48.130;-2.040;2022-07-23T20:13:58;25.90;50.00
61398;DHT22;47267;48.130;-2.040;2022-07-23T20:16:24;25.90;50.00
61398;DHT22;47267;48.130;-2.040;2022-07-23T20:18:50;25.90;50.00
61398;DHT22;47267;48.130;-2.040;2022-07-23T20:21:16;25.90;50.00
61398;DHT22;47267;48.130;-2.040;2022-07-23T20:23:41;25.90;49.90
61398;DHT22;47267;48.130;-2.040;2022-07-23T20:26:08;25.90;50.00
61398;DHT22;47267;48.130;-2.040;2022-07-23T20:28:35;25.90;50.00
61398;DHT22;47267;48.130;-2.040;2022-07-23T20:31:00;25.90;50.00
61398;DHT22;47267;48.130;-2.040;2022-07-23T20:33:30;25.90;49.90
61398;DHT22;47267;48.130;-2.040;2022-07-23T20:35:57;25.90;49.90
61398;DHT22;47267;48.130;-2.040;2022-07-23T20:38:23;25.90;50.60
61398;DHT22;47267;48.130;-2.040;2022-07-23T20:40:49;25.90;49.90
61398;DHT22;47267;48.130;-2.040;2022-07-23T20:43:15;25.90;49.90
61398;DHT22;47267;48.130;-2.040;2022-07-23T20:45:43;25.90;49.90
61398;DHT22;47267;48.130;-2.040;2022-07-23T20:48:10;25.90;49.90
61398;DHT22;47267;48.130;-2.040;2022-07-23T20:50:37;25.90;49.90
61398;DHT22;47267;48.130;-2.040;2022-07-23T20:53:04;25.90;49.90
61398;DHT22;47267;48.130;-2.040;2022-07-23T20:55:30;25.90;49.90
61398;DHT22;47267;48.130;-2.040;2022-07-23T20:57:56;25.90;49.90
61398;DHT22;47267;48.130;-2.040;2022-07-23T21:00:23;25.90;49.90
61398;DHT22;47267;48.130;-2.040;2022-07-23T21:02:49;25.90;49.90
61398;DHT22;47267;48.130;-2.040;2022-07-23T21:05:15;26.00;50.00
61398;DHT22;47267;48.130;-2.040;2022-07-23T21:07:41;25.90;49.90
61398;DHT22;47267;48.130;-2.040;2022-07-23T21:10:11;25.90;49.90
61398;DHT22;47267;48.130;-2.040;2022-07-23T21:12:41;25.90;49.90
61398;DHT22;47267;48.130;-2.040;2022-07-23T21:15:08;26.00;49.90
61398;DHT22;47267;48.130;-2.040;2022-07-23T21:17:34;25.90;49.90
61398;DHT22;47267;48.130;-2.040;2022-07-23T21:20:00;25.90;49.90
61398;DHT22;47267;48.130;-2.040;2022-07-23T21:22:26;26.00;49.90
61398;DHT22;47267;48.130;-2.040;2022-07-23T21:24:52;25.90;49.90
61398;DHT22;47267;48.130;-2.040;2022-07-23T21:27:18;26.00;49.90
61398;DHT22;47267;48.130;-2.040;2022-07-23T21:29:44;26.00;50.00
61398;DHT22;47267;48.130;-2.040;2022-07-23T21:32:10;26.00;49.90
61398;DHT22;47267;48.130;-2.040;2022-07-23T21:34:36;25.90;49.80
61398;DHT22;47267;48.130;-2.040;2022-07-23T21:37:02;25.90;49.90
61398;DHT22;47267;48.130;-2.040;2022-07-23T21:39:28;26.00;49.90
61398;DHT22;47267;48.130;-2.040;2022-07-23T21:41:54;26.00;49.90
61398;DHT22;47267;48.130;-2.040;2022-07-23T21:44:19;26.00;49.90
61398;DHT22;47267;48.130;-2.040;2022-07-23T21:46:45;26.00;49.90
61398;DHT22;47267;48.130;-2.040;2022-07-23T21:49:11;26.00;50.00
61398;DHT22;47267;48.130;-2.040;2022-07-23T21:51:37;26.00;49.90
61398;DHT22;47267;48.130;-2.040;2022-07-23T21:54:03;26.00;49.90
61398;DHT22;47267;48.130;-2.040;2022-07-23T21:56:29;26.00;49.90
61398;DHT22;47267;48.130;-2.040;2022-07-23T21:58:55;26.00;49.90
61398;DHT22;47267;48.130;-2.040;2022-07-23T22:01:21;26.00;50.00
61398;DHT22;47267;48.130;-2.040;2022-07-23T22:03:47;26.00;50.00
61398;DHT22;47267;48.130;-2.040;2022-07-23T22:06:12;25.90;49.90
61398;DHT22;47267;48.130;-2.040;2022-07-23T22:08:38;25.90;49.90
61398;DHT22;47267;48.130;-2.040;2022-07-23T22:11:05;26.00;50.00
61398;DHT22;47267;48.130;-2.040;2022-07-23T22:13:31;26.00;50.00
61398;DHT22;47267;48.130;-2.040;2022-07-23T22:15:56;26.00;50.00
61398;DHT22;47267;48.130;-2.040;2022-07-23T22:18:22;26.00;50.00
61398;DHT22;47267;48.130;-2.040;2022-07-23T22:20:48;26.00;50.00
61398;DHT22;47267;48.130;-2.040;2022-07-23T22:23:14;26.00;50.00
61398;DHT22;47267;48.130;-2.040;2022-07-23T22:25:40;26.00;50.00
61398;DHT22;47267;48.130;-2.040;2022-07-23T22:28:06;25.90;50.00
61398;DHT22;47267;48.130;-2.040;2022-07-23T22:30:32;25.90;50.00
61398;DHT22;47267;48.130;-2.040;2022-07-23T22:32:58;25.90;50.00
61398;DHT22;47267;48.130;-2.040;2022-07-23T22:35:23;25.90;50.00
61398;DHT22;47267;48.130;-2.040;2022-07-23T22:37:49;25.90;50.00
61398;DHT22;47267;48.130;-2.040;2022-07-23T22:40:17;25.90;50.00
61398;DHT22;47267;48.130;-2.040;2022-07-23T22:42:44;25.90;50.60
61398;DHT22;47267;48.130;-2.040;2022-07-23T22:45:10;25.90;50.00
61398;DHT22;47267;48.130;-2.040;2022-07-23T22:47:38;25.90;50.00
61398;DHT22;47267;48.130;-2.040;2022-07-23T22:50:05;25.90;50.00
61398;DHT22;47267;48.130;-2.040;2022-07-23T22:52:31;25.90;50.00
61398;DHT22;47267;48.130;-2.040;2022-07-23T22:54:57;25.90;50.00
61398;DHT22;47267;48.130;-2.040;2022-07-23T22:57:23;25.90;50.00
61398;DHT22;47267;48.130;-2.040;2022-07-23T22:59:49;25.90;50.00
61398;DHT22;47267;48.130;-2.040;2022-07-23T23:02:15;25.90;50.00
61398;DHT22;47267;48.130;-2.040;2022-07-23T23:04:41;25.90;50.00
61398;DHT22;47267;48.130;-2.040;2022-07-23T23:07:07;25.90;50.00
61398;DHT22;47267;48.130;-2.040;2022-07-23T23:09:33;25.90;50.00
61398;DHT22;47267;48.130;-2.040;2022-07-23T23:11:59;25.90;50.00
61398;DHT22;47267;48.130;-2.040;2022-07-23T23:14:25;25.90;50.00
61398;DHT22;47267;48.130;-2.040;2022-07-23T23:16:51;25.90;50.00
61398;DHT22;47267;48.130;-2.040;2022-07-23T23:19:16;25.90;50.00
61398;DHT22;47267;48.130;-2.040;2022-07-23T23:21:42;25.80;49.90
61398;DHT22;47267;48.130;-2.040;2022-07-23T23:24:08;25.90;50.00
61398;DHT22;47267;48.130;-2.040;2022-07-23T23:26:34;25.80;49.90
61398;DHT22;47267;48.130;-2.040;2022-07-23T23:29:00;25.80;50.00
61398;DHT22;47267;48.130;-2.040;2022-07-23T23:31:26;25.80;50.00
61398;DHT22;47267;48.130;-2.040;2022-07-23T23:33:52;25.80;50.00
61398;DHT22;47267;48.130;-2.040;2022-07-23T23:36:17;25.80;49.90
61398;DHT22;47267;48.130;-2.040;2022-07-23T23:38:43;25.80;50.00
61398;DHT22;47267;48.130;-2.040;2022-07-23T23:41:09;25.80;50.00
61398;DHT22;47267;48.130;-2.040;2022-07-23T23:43:35;25.80;50.00
61398;DHT22;47267;48.130;-2.040;2022-07-23T23:46:00;25.80;49.90
61398;DHT22;47267;48.130;-2.040;2022-07-23T23:48:26;25.80;50.00
61398;DHT22;47267;48.130;-2.040;2022-07-23T23:50:52;25.80;49.90
61398;DHT22;47267;48.130;-2.040;2022-07-23T23:53:17;25.80;50.00
61398;DHT22;47267;48.130;-2.040;2022-07-23T23:55:43;25.80;50.00
61398;DHT22;47267;48.130;-2.040;2022-07-23T23:58:09;25.70;49.90
